Terminal Aerodrome Forecast
Issued by NWS

Home | Current Version | Previous Version | Text Only | Print | Product List | Glossary On
Versions: 1 2 3 4 5 6 7 8 9 10 11 12 13 14 15
000
FTUS43 KOAX 052347
TAFSNY
TAF
KSNY 052347Z 0600/0624 33016G23KT P6SM VCTS BKN100CB
     FM060100 35020G32KT 5SM -TSRA BKN070CB
     FM060300 36016G25KT P6SM BKN050
     FM060600 36016G24KT 4SM -RA SCT007 BKN015
     FM061500 01014KT P6SM SCT015 BKN050=

USA.gov is the U.S. government's official web portal to all federal, state and local government web resources and services.